Time;durP1;ratioP1;P1;durP2;ratioP2;P2;SDS_P1;SDS_P2;PMS_P1;PMS_P2;Temp;Humidity;BMP_temperature;BMP_pressure;BME280_temperature;BME280_humidity;BME280_pressure;Samples;Min_cycle;Max_cycle;Signal;HPM_P1;HPM_P2
2021/12/23 18:32:54;;;;;;;13.93;9.25;;;9.70;99.90;;;;;;6114608;23;20029;-86
2021/12/23 18:35:28;;;;;;;15.68;9.45;;;9.70;99.90;;;;;;6125160;23;20044;-87
2021/12/23 18:40:34;;;;;;;16.05;9.80;;;9.60;99.90;;;;;;6120389;23;20415;-94
2021/12/23 18:43:04;;;;;;;13.25;8.93;;;9.50;99.90;;;;;;6126496;23;20076;-96
2021/12/23 18:45:30;;;;;;;11.43;8.88;;;9.90;99.90;;;;;;6120497;23;20024;-95
2021/12/23 18:47:57;;;;;;;10.15;8.05;;;9.50;99.90;;;;;;6116658;23;20028;-96
2021/12/23 18:50:25;;;;;;;16.48;8.60;;;9.50;99.90;;;;;;6133695;23;20010;-96
2021/12/23 18:52:52;;;;;;;11.73;8.55;;;9.90;99.90;;;;;;6151055;23;20012;-96
2021/12/23 18:55:19;;;;;;;11.02;7.93;;;9.30;99.90;;;;;;6104011;23;20014;-95
2021/12/23 18:57:45;;;;;;;11.73;8.27;;;9.40;99.90;;;;;;6100430;23;20002;-95
2021/12/23 19:00:19;;;;;;;11.15;7.32;;;9.40;99.90;;;;;;6103722;23;20006;-95
2021/12/23 19:03:08;;;;;;;11.25;7.60;;;9.50;99.90;;;;;;6086818;23;20018;-96
2021/12/23 19:05:38;;;;;;;14.07;7.13;;;9.40;99.90;;;;;;6109646;23;20017;-96
2021/12/23 19:08:04;;;;;;;13.20;7.97;;;9.50;99.90;;;;;;6128060;23;20053;-95
2021/12/23 19:10:53;;;;;;;12.00;8.65;;;9.50;99.90;;;;;;6108157;23;20009;-96
2021/12/23 19:13:38;;;;;;;11.40;8.57;;;9.40;99.90;;;;;;6124748;23;19990;-96
2021/12/23 19:16:06;;;;;;;12.68;8.35;;;9.40;99.90;;;;;;6106634;23;20025;-95
2021/12/23 19:18:32;;;;;;;11.40;7.90;;;9.30;99.90;;;;;;6128349;23;20050;-95
2021/12/23 19:20:58;;;;;;;11.55;8.70;;;9.60;99.90;;;;;;6101261;23;20090;-95
2021/12/23 19:23:24;;;;;;;13.00;8.15;;;9.20;99.90;;;;;;6126494;23;20038;-94
2021/12/23 19:25:50;;;;;;;12.07;8.10;;;9.20;99.90;;;;;;6100827;23;20010;-96
2021/12/23 19:28:15;;;;;;;11.82;9.38;;;9.30;99.90;;;;;;6126116;23;20009;-93
2021/12/23 19:30:41;;;;;;;14.88;9.65;;;9.20;99.90;;;;;;6099786;23;20085;-93
2021/12/23 19:33:07;;;;;;;14.05;10.00;;;9.10;99.90;;;;;;6099859;23;20002;-94
2021/12/23 19:35:32;;;;;;;16.60;9.55;;;9.20;99.90;;;;;;6099950;23;20018;-93
2021/12/23 19:37:58;;;;;;;14.75;10.40;;;9.00;99.90;;;;;;6125959;23;20017;-95
2021/12/23 19:40:24;;;;;;;14.90;10.70;;;8.80;99.90;;;;;;6125713;23;20010;-94
2021/12/23 19:42:50;;;;;;;14.13;10.57;;;8.80;99.90;;;;;;6127911;23;20065;-95
2021/12/23 19:45:15;;;;;;;17.63;11.98;;;8.60;99.90;;;;;;6127316;23;20077;-95
2021/12/23 19:47:41;;;;;;;14.95;10.77;;;8.60;99.90;;;;;;6100230;23;20101;-95
2021/12/23 19:50:10;;;;;;;17.95;12.10;;;8.70;99.90;;;;;;6127810;23;20504;-95
2021/12/23 19:52:41;;;;;;;16.80;11.93;;;8.50;99.90;;;;;;6102391;23;20057;-95
2021/12/23 19:55:17;;;;;;;13.23;9.98;;;8.50;99.90;;;;;;6125987;23;20137;-96
2021/12/23 19:57:43;;;;;;;14.70;10.20;;;8.50;99.90;;;;;;6127366;23;20017;-94
2021/12/23 20:00:11;;;;;;;12.13;9.18;;;8.70;99.90;;;;;;6125828;23;20084;-95
2021/12/23 20:02:38;;;;;;;11.82;9.20;;;8.50;99.90;;;;;;6127863;23;20030;-96
2021/12/23 20:05:06;;;;;;;13.85;9.20;;;8.60;99.90;;;;;;6126552;23;20006;-96
2021/12/23 20:07:32;;;;;;;13.52;8.80;;;8.50;99.90;;;;;;6126758;23;20010;-96
2021/12/23 20:09:58;;;;;;;12.90;9.85;;;8.70;99.90;;;;;;6125962;23;20025;-96
2021/12/23 20:12:24;;;;;;;13.05;10.07;;;8.50;99.90;;;;;;6126803;23;20006;-95
2021/12/23 20:14:50;;;;;;;11.55;9.73;;;8.50;99.90;;;;;;6126218;23;20017;-94
2021/12/23 20:17:15;;;;;;;17.15;10.48;;;8.50;99.90;;;;;;6125382;23;20017;-94
2021/12/23 20:19:41;;;;;;;18.30;11.50;;;8.40;99.90;;;;;;6100029;23;20002;-94
2021/12/23 20:22:06;;;;;;;14.75;9.75;;;8.70;99.90;;;;;;6126657;23;20026;-95
2021/12/23 20:24:35;;;;;;;12.85;9.48;;;8.30;99.90;;;;;;6125935;23;20420;-95
2021/12/23 20:27:01;;;;;;;13.60;10.20;;;8.10;99.90;;;;;;6126208;23;20013;-95
2021/12/23 20:29:29;;;;;;;14.02;10.40;;;8.20;99.90;;;;;;6129851;23;20006;-96
2021/12/23 20:31:55;;;;;;;14.65;10.23;;;8.10;99.90;;;;;;6133161;23;20017;-95
2021/12/23 20:34:21;;;;;;;15.70;10.85;;;8.30;99.90;;;;;;6125509;23;20010;-94
2021/12/23 20:36:47;;;;;;;14.40;10.00;;;8.10;99.90;;;;;;6099597;23;20024;-95
2021/12/23 20:39:12;;;;;;;14.75;10.23;;;8.10;99.90;;;;;;6099198;23;20002;-94
2021/12/23 20:41:41;;;;;;;16.77;11.40;;;8.10;99.90;;;;;;6125126;23;20022;-94
2021/12/23 20:44:08;;;;;;;16.30;11.38;;;8.30;99.90;;;;;;6126205;23;20006;-94
2021/12/23 20:46:34;;;;;;;14.10;10.80;;;8.00;99.90;;;;;;6125797;23;20080;-94
2021/12/23 20:49:00;;;;;;;15.50;10.55;;;7.90;99.90;;;;;;6099874;23;20009;-96
2021/12/23 20:51:27;;;;;;;15.32;10.52;;;8.00;99.90;;;;;;6126825;23;20006;-96
2021/12/23 20:54:04;;;;;;;14.45;10.23;;;8.30;99.90;;;;;;6135108;23;20002;-96
2021/12/23 20:56:30;;;;;;;14.70;10.45;;;7.90;99.90;;;;;;6131703;23;20022;-96
2021/12/23 20:58:56;;;;;;;12.38;9.75;;;7.90;99.90;;;;;;6099935;23;20086;-95
2021/12/23 21:01:26;;;;;;;15.30;10.40;;;8.40;99.90;;;;;;6100261;23;20006;-96
2021/12/23 21:03:52;;;;;;;14.48;10.25;;;8.20;99.90;;;;;;6126074;23;20006;-96
2021/12/23 21:06:19;;;;;;;14.90;10.85;;;8.10;99.90;;;;;;6125698;23;20009;-94
2021/12/23 21:08:45;;;;;;;16.42;10.50;;;7.90;99.90;;;;;;6100312;23;20016;-96
2021/12/23 21:11:12;;;;;;;16.70;11.13;;;7.80;99.90;;;;;;6125678;23;20009;-95
2021/12/23 21:13:40;;;;;;;13.80;10.60;;;7.80;99.90;;;;;;6125786;23;20048;-95
2021/12/23 21:16:05;;;;;;;14.55;9.82;;;7.90;99.90;;;;;;6125552;23;20014;-94
2021/12/23 21:18:31;;;;;;;15.35;10.43;;;7.80;99.90;;;;;;6100212;23;20092;-96
2021/12/23 21:20:59;;;;;;;13.52;9.00;;;7.80;99.90;;;;;;6099823;23;20038;-95
2021/12/23 21:23:24;;;;;;;12.32;9.30;;;7.90;99.90;;;;;;6125613;23;20010;-95
2021/12/23 21:25:51;;;;;;;15.68;10.25;;;7.80;99.90;;;;;;6099727;23;20006;-94
2021/12/23 21:28:18;;;;;;;11.25;7.97;;;7.60;99.90;;;;;;6100040;23;20013;-96
2021/12/23 21:30:45;;;;;;;12.40;8.65;;;8.10;99.90;;;;;;6099992;23;20013;-95
2021/12/23 21:33:11;;;;;;;12.57;8.45;;;7.70;99.90;;;;;;6125077;23;20145;-96
2021/12/23 21:35:36;;;;;;;12.23;8.70;;;7.70;99.90;;;;;;6100632;23;20046;-95
2021/12/23 21:38:04;;;;;;;11.25;8.48;;;7.70;99.90;;;;;;6108608;23;20006;-96
2021/12/23 21:40:37;;;;;;;11.25;7.90;;;7.80;99.90;;;;;;6108053;23;20017;-96
2021/12/23 21:43:04;;;;;;;17.17;9.10;;;7.70;99.90;;;;;;6139412;23;20013;-96
2021/12/23 21:45:39;;;;;;;12.55;8.88;;;7.70;99.90;;;;;;6137879;23;20025;-96
2021/12/23 21:48:06;;;;;;;14.30;9.40;;;7.70;99.90;;;;;;6109839;23;20069;-96
2021/12/23 21:50:33;;;;;;;12.05;8.75;;;7.70;99.90;;;;;;6108851;23;20084;-96
2021/12/23 21:52:58;;;;;;;12.85;9.35;;;7.70;99.90;;;;;;6135631;23;20014;-96
2021/12/23 21:56:01;;;;;;;14.13;9.05;;;7.60;99.90;;;;;;6113697;23;20021;-96
2021/12/23 21:58:31;;;;;;;12.43;9.60;;;7.60;99.90;;;;;;6137000;23;20021;-96
2021/12/23 22:01:12;;;;;;;13.80;9.38;;;7.70;99.90;;;;;;6133805;23;20006;-96
2021/12/23 22:04:21;;;;;;;14.73;10.60;;;7.00;99.90;;;;;;6140706;23;20010;-96
2021/12/23 22:06:56;;;;;;;12.05;8.65;;;7.40;99.90;;;;;;6097903;23;20017;-96
2021/12/23 22:09:22;;;;;;;16.00;9.32;;;7.40;99.90;;;;;;6105829;23;20037;-96
2021/12/23 22:11:50;;;;;;;12.07;9.43;;;7.50;99.90;;;;;;6129731;23;20006;-95
2021/12/23 22:32:30;;;;;;;13.45;9.45;;;7.50;99.90;;;;;;5955379;24;20058;-96
2021/12/23 22:35:59;;;;;;;11.60;9.07;;;7.50;99.90;;;;;;5957706;23;19997;-96
2021/12/23 22:46:41;;;;;;;11.60;8.30;;;7.40;99.90;;;;;;5880633;24;20065;-96
2021/12/23 22:49:06;;;;;;;11.48;8.32;;;7.30;99.90;;;;;;5872680;24;20044;-96
2021/12/23 22:51:32;;;;;;;12.95;8.70;;;7.20;99.90;;;;;;5872980;24;20011;-96
2021/12/23 23:54:00;;;;;;;13.15;8.70;;;7.00;99.90;;;;;;6135831;23;20048;-96
2021/12/23 23:56:25;;;;;;;12.27;8.85;;;7.10;99.90;;;;;;6116762;23;20024;-96
2021/12/23 23:58:56;;;;;;;12.25;8.60;;;7.00;99.90;;;;;;6142410;23;20002;-96
